createdAt,value
2023-04-04T00:00:44.488Z,102698.72
2023-04-04T00:03:17.210Z,102695.22
2023-04-04T00:05:48.291Z,102691.94
2023-04-04T00:08:18.253Z,102699.63
2023-04-04T00:10:48.274Z,102701.97
2023-04-04T00:13:18.514Z,102696.19
2023-04-04T00:15:48.655Z,102698.75
2023-04-04T00:18:22.005Z,102701.53
2023-04-04T00:20:51.874Z,102700.31
2023-04-04T00:23:21.735Z,102695.66
2023-04-04T00:25:55.190Z,102697.94
2023-04-04T00:28:25.280Z,102695.34
2023-04-04T00:30:55.274Z,102703.63
2023-04-04T00:33:28.075Z,102703.88
2023-04-04T00:35:58.259Z,102703.72
2023-04-04T00:38:29.901Z,102703.31
2023-04-04T00:41:00.701Z,102695.94
2023-04-04T00:43:31.030Z,102706.09
2023-04-04T00:46:01.158Z,102709.22
2023-04-04T00:48:34.729Z,102705.94
2023-04-04T00:51:04.682Z,102713.41
2023-04-04T00:53:34.930Z,102700.41
2023-04-04T00:56:05.215Z,102702.28
2023-04-04T00:58:35.495Z,102697.56
2023-04-04T01:01:05.512Z,102700.25
2023-04-04T01:03:39.909Z,102696.53
2023-04-04T01:06:11.509Z,102692.81
2023-04-04T01:08:42.667Z,102692.81
2023-04-04T01:11:13.651Z,102692.00
2023-04-04T01:13:43.707Z,102688.69
2023-04-04T01:16:13.724Z,102693.69
2023-04-04T01:18:47.510Z,102681.72
2023-04-04T01:21:22.033Z,102686.75
2023-04-04T01:24:00.145Z,102684.72
2023-04-04T01:26:33.550Z,102687.84
2023-04-04T01:29:03.493Z,102689.31
2023-04-04T01:31:40.847Z,102683.78
2023-04-04T01:34:18.999Z,102681.56
2023-04-04T01:36:55.040Z,102673.34
2023-04-04T01:39:30.986Z,102681.63
2023-04-04T01:42:06.371Z,102685.75
2023-04-04T01:44:36.642Z,102680.03
2023-04-04T01:47:09.889Z,102682.94
2023-04-04T01:49:39.901Z,102670.16
2023-04-04T01:52:10.170Z,102681.34
2023-04-04T01:54:40.085Z,102671.03
2023-04-04T01:57:13.109Z,102673.13
2023-04-04T01:59:43.101Z,102675.22
2023-04-04T02:02:13.530Z,102675.63
2023-04-04T02:04:43.552Z,102670.72
2023-04-04T02:07:13.558Z,102669.09
2023-04-04T02:09:43.814Z,102670.72
2023-04-04T02:12:16.440Z,102665.34
2023-04-04T02:14:46.749Z,102668.63
2023-04-04T02:17:17.130Z,102674.00
2023-04-04T02:19:47.176Z,102668.84
2023-04-04T02:22:17.145Z,102669.91
2023-04-04T02:24:47.027Z,102671.13
2023-04-04T02:27:19.648Z,102672.63
2023-04-04T02:29:49.496Z,102670.38
2023-04-04T02:32:19.656Z,102674.53
2023-04-04T02:34:49.503Z,102667.97
2023-04-04T02:37:19.481Z,102664.69
2023-04-04T02:39:49.669Z,102672.13
2023-04-04T02:42:22.311Z,102658.31
2023-04-04T02:44:52.301Z,102661.66
2023-04-04T02:47:23.387Z,102660.44
2023-04-04T02:49:53.376Z,102657.16
2023-04-04T02:52:24.322Z,102654.06
2023-04-04T02:54:54.688Z,102649.97
2023-04-04T02:57:27.564Z,102654.13
2023-04-04T02:59:57.567Z,102662.00
2023-04-04T03:02:28.066Z,102658.69
2023-04-04T03:04:58.184Z,102662.41
2023-04-04T03:07:28.081Z,102657.50
2023-04-04T03:10:02.548Z,102659.56
2023-04-04T03:12:34.966Z,102651.94
2023-04-04T03:15:05.695Z,102656.72
2023-04-04T03:17:35.583Z,102658.13
2023-04-04T03:20:05.467Z,102650.91
2023-04-04T03:22:35.488Z,102652.56
2023-04-04T03:25:05.396Z,102656.88
2023-04-04T03:27:40.083Z,102659.56
2023-04-04T03:30:11.697Z,102656.28
2023-04-04T03:32:42.383Z,102649.91
2023-04-04T03:35:13.279Z,102663.53
2023-04-04T03:37:43.472Z,102649.53
2023-04-04T03:40:14.574Z,102651.59
2023-04-04T03:42:47.387Z,102645.03
2023-04-04T03:45:17.400Z,102646.28
2023-04-04T03:47:47.531Z,102639.47
2023-04-04T03:50:17.585Z,102647.72
2023-04-04T03:52:47.732Z,102642.00
2023-04-04T03:55:17.918Z,102651.03
2023-04-04T03:57:50.531Z,102637.03
2023-04-04T04:00:20.909Z,102638.53
2023-04-04T04:02:50.865Z,102638.72
2023-04-04T04:05:20.909Z,102634.81
2023-04-04T04:07:50.757Z,102642.25
2023-04-04T04:10:20.805Z,102645.34
2023-04-04T04:12:53.311Z,102643.94
2023-04-04T04:15:23.228Z,102636.28
2023-04-04T04:17:53.809Z,102637.34
2023-04-04T04:20:23.751Z,102635.09
2023-04-04T04:22:54.197Z,102635.50
2023-04-04T04:25:24.590Z,102639.22
2023-04-04T04:27:58.747Z,102640.84
2023-04-04T04:30:28.905Z,102651.97
2023-04-04T04:32:59.212Z,102645.38
2023-04-04T04:35:29.182Z,102638.38
2023-04-04T04:37:59.447Z,102642.69
2023-04-04T04:40:29.476Z,102636.94
2023-04-04T04:43:03.054Z,102639.81
2023-04-04T04:45:33.353Z,102636.97
2023-04-04T04:48:03.404Z,102625.63
2023-04-04T04:50:33.640Z,102624.22
2023-04-04T04:53:05.187Z,102623.19
2023-04-04T04:55:35.083Z,102622.81
2023-04-04T04:58:07.750Z,102626.69
2023-04-04T05:00:38.416Z,102631.44
2023-04-04T05:03:09.777Z,102631.88
2023-04-04T05:05:39.868Z,102627.75
2023-04-04T05:08:09.892Z,102629.63
2023-04-04T05:10:40.373Z,102633.53
2023-04-04T05:13:14.168Z,102628.81
2023-04-04T05:15:44.162Z,102632.50
2023-04-04T05:18:13.972Z,102635.63
2023-04-04T05:20:46.929Z,102638.31
2023-04-04T05:23:17.399Z,102644.88
2023-04-04T05:25:47.458Z,102646.94
2023-04-04T05:28:19.988Z,102650.88
2023-04-04T05:30:50.425Z,102654.59
2023-04-04T05:33:20.292Z,102661.78
2023-04-04T05:35:50.475Z,102668.56
2023-04-04T05:38:20.638Z,102652.09
2023-04-04T05:40:50.726Z,102651.69
2023-04-04T05:43:23.226Z,102648.38
2023-04-04T05:45:53.250Z,102650.84
2023-04-04T05:48:23.599Z,102655.16
2023-04-04T05:50:53.499Z,102663.19
2023-04-04T05:53:23.861Z,102656.22
2023-04-04T05:55:55.763Z,102652.91
2023-04-04T05:58:28.226Z,102654.97
2023-04-04T06:01:00.263Z,102665.88
2023-04-04T06:03:31.176Z,102669.38
2023-04-04T06:06:01.403Z,102675.13
2023-04-04T06:08:35.374Z,102676.59
2023-04-04T06:11:10.356Z,102683.38
2023-04-04T06:13:42.913Z,102693.03
2023-04-04T06:16:13.026Z,102685.81
2023-04-04T06:18:42.948Z,102688.25
2023-04-04T06:21:13.533Z,102696.91
2023-04-04T06:23:44.105Z,102699.53
2023-04-04T06:26:15.119Z,102694.59
2023-04-04T06:28:53.075Z,102694.94
2023-04-04T06:31:23.447Z,102702.34
2023-04-04T06:33:53.487Z,102702.53
2023-04-04T06:36:23.537Z,102700.44
2023-04-04T06:38:54.301Z,102695.88
2023-04-04T06:41:24.176Z,102696.88
2023-04-04T06:43:56.830Z,102703.72
2023-04-04T06:46:27.402Z,102703.97
2023-04-04T06:48:58.173Z,102697.72
2023-04-04T06:51:28.852Z,102693.22
2023-04-04T06:53:59.470Z,102686.91
2023-04-04T06:56:30.030Z,102694.63
2023-04-04T06:59:06.113Z,102686.47
2023-04-04T07:01:38.264Z,102692.19
2023-04-04T07:04:08.249Z,102692.47
2023-04-04T07:06:38.230Z,102695.44
2023-04-04T07:09:15.372Z,102696.88
2023-04-04T07:11:55.146Z,102694.22
2023-04-04T07:14:27.682Z,102693.34
2023-04-04T07:16:58.541Z,102690.28
2023-04-04T07:19:29.106Z,102686.66
2023-04-04T07:22:00.455Z,102691.69
2023-04-04T07:24:30.650Z,102685.88
2023-04-04T07:27:00.529Z,102688.31
2023-04-04T07:29:32.924Z,102683.50
2023-04-04T07:32:03.269Z,102683.03
2023-04-04T07:34:35.207Z,102674.75
2023-04-04T07:37:05.115Z,102679.41
2023-04-04T07:39:35.112Z,102668.44
2023-04-04T07:42:05.013Z,102664.53
2023-04-04T07:44:37.612Z,102664.72
2023-04-04T07:47:10.343Z,102668.13
2023-04-04T07:49:40.694Z,102663.41
2023-04-04T07:52:10.928Z,102666.78
2023-04-04T07:54:40.941Z,102665.75
2023-04-04T07:57:10.929Z,102664.34
2023-04-04T07:59:43.453Z,102655.69
2023-04-04T08:02:13.384Z,102663.09
2023-04-04T08:04:43.614Z,102656.53
2023-04-04T08:07:13.646Z,102651.63
2023-04-04T08:09:43.833Z,102648.66
2023-04-04T08:12:13.878Z,102661.22
2023-04-04T08:14:46.829Z,102658.03
2023-04-04T08:17:19.189Z,102656.75
2023-04-04T08:19:49.500Z,102660.59
2023-04-04T08:22:22.563Z,102657.88
2023-04-04T08:24:52.588Z,102665.47
2023-04-04T08:27:22.481Z,102661.41
2023-04-04T08:29:55.075Z,102659.47
2023-04-04T08:32:25.341Z,102658.94
2023-04-04T08:34:55.561Z,102667.66
2023-04-04T08:37:25.618Z,102661.16
2023-04-04T08:39:55.610Z,102661.69
2023-04-04T08:42:27.805Z,102657.31
2023-04-04T08:45:02.681Z,102651.38
2023-04-04T08:47:37.794Z,102644.03
2023-04-04T08:50:13.465Z,102649.66
2023-04-04T08:52:45.084Z,102649.06
2023-04-04T08:55:16.153Z,102646.81
2023-04-04T08:57:47.103Z,102653.34
2023-04-04T09:00:21.798Z,102655.91
2023-04-04T09:02:58.631Z,102647.44
2023-04-04T09:05:29.393Z,102646.94
2023-04-04T09:07:59.607Z,102655.16
2023-04-04T09:10:30.048Z,102652.94
2023-04-04T09:13:12.489Z,102645.88
2023-04-04T09:15:51.453Z,102639.75
2023-04-04T09:18:21.772Z,102634.00
2023-04-04T09:20:53.040Z,102635.69
2023-04-04T09:23:24.357Z,102632.66
2023-04-04T09:26:03.677Z,102632.00
2023-04-04T09:28:35.325Z,102625.13
2023-04-04T09:31:11.653Z,102622.19
2023-04-04T09:33:42.110Z,102627.56
2023-04-04T09:36:18.275Z,102626.25
2023-04-04T09:38:49.094Z,102611.22
2023-04-04T09:41:21.663Z,102617.72
2023-04-04T09:43:51.758Z,102626.91
2023-04-04T09:46:26.582Z,102629.44
2023-04-04T09:48:57.623Z,102622.56
2023-04-04T09:51:27.697Z,102622.16
2023-04-04T09:53:57.844Z,102621.63
2023-04-04T09:56:27.881Z,102616.63
2023-04-04T09:59:04.116Z,102619.38
2023-04-04T10:01:37.783Z,102624.28
2023-04-04T10:04:08.973Z,102611.53
2023-04-04T10:06:39.983Z,102612.22
2023-04-04T10:09:11.253Z,102614.81
2023-04-04T10:11:41.164Z,102610.97
2023-04-04T10:14:12.612Z,102602.00
2023-04-04T10:16:48.856Z,102606.06
2023-04-04T10:19:20.249Z,102592.75
2023-04-04T10:21:51.306Z,102598.09
2023-04-04T10:24:22.265Z,102596.84
2023-04-04T10:26:53.582Z,102596.81
2023-04-04T10:29:23.435Z,102592.50
2023-04-04T10:32:03.598Z,102587.28
2023-04-04T10:34:39.194Z,102578.25
2023-04-04T10:37:13.123Z,102576.25
2023-04-04T10:39:49.435Z,102578.22
2023-04-04T10:42:22.227Z,102570.28
2023-04-04T10:44:54.075Z,102585.91
2023-04-04T10:47:29.712Z,102571.25
2023-04-04T10:50:00.471Z,102577.91
2023-04-04T10:52:34.101Z,102572.69
2023-04-04T10:55:07.802Z,102571.53
2023-04-04T10:57:42.211Z,102561.53
2023-04-04T11:00:14.766Z,102567.00
2023-04-04T11:02:57.037Z,102561.28
2023-04-04T11:05:29.022Z,102553.06
2023-04-04T11:08:07.717Z,102541.06
2023-04-04T11:10:39.997Z,102543.19
2023-04-04T11:13:14.517Z,102528.94
2023-04-04T11:15:59.064Z,102541.34
2023-04-04T11:18:51.083Z,102530.38
2023-04-04T11:21:24.269Z,102526.38
2023-04-04T11:24:19.270Z,102526.38
2023-04-04T11:26:50.008Z,102536.97
2023-04-04T11:29:56.089Z,102529.81
2023-04-04T11:32:59.793Z,102534.41
2023-04-04T11:35:37.390Z,102524.56
2023-04-04T11:38:07.654Z,102528.44
2023-04-04T11:40:39.336Z,102529.97
2023-04-04T11:43:14.027Z,102523.34
2023-04-04T11:45:48.300Z,102510.31
2023-04-04T11:48:20.607Z,102505.97
2023-04-04T11:50:53.220Z,102515.16
2023-04-04T11:53:23.163Z,102515.91
2023-04-04T11:55:56.860Z,102512.13
2023-04-04T11:58:27.137Z,102513.13
2023-04-04T12:00:57.122Z,102501.41
2023-04-04T12:03:27.061Z,102511.06
2023-04-04T12:06:00.652Z,102510.59
2023-04-04T12:08:31.853Z,102518.06
2023-04-04T12:11:07.482Z,102507.88
2023-04-04T12:13:37.520Z,102504.50
2023-04-04T12:16:08.285Z,102502.97
2023-04-04T12:18:38.144Z,102491.47
2023-04-04T12:21:10.877Z,102483.06
2023-04-04T12:23:40.894Z,102489.03
2023-04-04T12:26:11.668Z,102484.31
2023-04-04T12:28:42.424Z,102493.09
2023-04-04T12:31:12.805Z,102468.75
2023-04-04T12:33:44.508Z,102472.38
2023-04-04T12:36:17.283Z,102469.53
2023-04-04T12:39:01.164Z,102470.50
2023-04-04T12:41:31.814Z,102459.59
2023-04-04T12:44:05.813Z,102445.22
2023-04-04T12:46:40.038Z,102441.50
2023-04-04T12:49:11.187Z,102434.84
2023-04-04T12:51:44.275Z,102447.09
2023-04-04T12:54:29.322Z,102446.97
2023-04-04T12:57:00.072Z,102439.31
2023-04-04T12:59:32.426Z,102441.00
2023-04-04T13:02:04.105Z,102439.81
2023-04-04T13:04:35.182Z,102423.84
2023-04-04T13:07:07.796Z,102423.63
2023-04-04T13:09:37.912Z,102421.19
2023-04-04T13:12:10.322Z,102421.66
2023-04-04T13:15:06.937Z,102406.31
2023-04-04T13:17:46.270Z,102401.34
2023-04-04T13:20:17.848Z,102396.72
2023-04-04T13:22:50.613Z,102388.97
2023-04-04T13:25:20.537Z,102391.31
2023-04-04T13:27:50.745Z,102381.28
2023-04-04T13:30:20.798Z,102382.50
2023-04-04T13:32:50.963Z,102384.22
2023-04-04T13:35:21.269Z,102384.09
2023-04-04T13:37:54.097Z,102374.78
2023-04-04T13:40:24.084Z,102375.19
2023-04-04T13:42:54.236Z,102368.91
2023-04-04T13:45:24.408Z,102370.84
2023-04-04T13:47:54.464Z,102367.81
2023-04-04T13:50:24.484Z,102366.91
2023-04-04T13:52:57.039Z,102353.13
2023-04-04T13:55:27.009Z,102353.94
2023-04-04T13:57:57.041Z,102346.53
2023-04-04T14:00:28.757Z,102348.47
2023-04-04T14:02:59.461Z,102348.66
2023-04-04T14:05:29.606Z,102349.44
2023-04-04T14:08:02.625Z,102342.25
2023-04-04T14:10:32.812Z,102337.06
2023-04-04T14:13:02.718Z,102332.97
2023-04-04T14:15:33.472Z,102325.69
2023-04-04T14:18:03.581Z,102327.09
2023-04-04T14:20:34.709Z,102320.84
2023-04-04T14:23:12.160Z,102317.97
2023-04-04T14:25:43.210Z,102310.09
2023-04-04T14:28:13.288Z,102310.75
2023-04-04T14:30:43.243Z,102304.66
2023-04-04T14:33:13.346Z,102306.91
2023-04-04T14:35:43.766Z,102304.84
2023-04-04T14:38:16.661Z,102308.09
2023-04-04T14:40:46.568Z,102303.72
2023-04-04T14:43:19.097Z,102300.56
2023-04-04T14:45:49.044Z,102294.34
2023-04-04T14:48:18.941Z,102293.47
2023-04-04T14:50:49.718Z,102288.59
2023-04-04T14:53:23.051Z,102287.84
2023-04-04T14:55:55.906Z,102280.75
2023-04-04T14:58:28.642Z,102284.47
2023-04-04T15:00:58.756Z,102280.19
2023-04-04T15:03:29.346Z,102286.28
2023-04-04T15:05:59.662Z,102285.88
2023-04-04T15:08:32.411Z,102281.13
2023-04-04T15:11:03.831Z,102278.25
2023-04-04T15:13:33.728Z,102276.66
2023-04-04T15:16:04.496Z,102278.72
2023-04-04T15:18:34.472Z,102273.50
2023-04-04T15:21:04.495Z,102271.81
2023-04-04T15:23:37.161Z,102268.38
2023-04-04T15:26:07.203Z,102262.50
2023-04-04T15:28:37.295Z,102253.72
2023-04-04T15:31:08.465Z,102269.13
2023-04-04T15:33:38.685Z,102256.63
2023-04-04T15:36:08.961Z,102259.84
2023-04-04T15:38:42.411Z,102260.72
2023-04-04T15:41:13.279Z,102265.84
2023-04-04T15:43:43.097Z,102259.41
2023-04-04T15:46:13.456Z,102261.00
2023-04-04T15:48:43.468Z,102265.06
2023-04-04T15:51:13.475Z,102262.66
2023-04-04T15:53:46.106Z,102254.69
2023-04-04T15:56:16.866Z,102262.56
2023-04-04T15:58:46.794Z,102256.38
2023-04-04T16:01:16.953Z,102247.59
2023-04-04T16:03:47.251Z,102241.63
2023-04-04T16:06:17.133Z,102248.50
2023-04-04T16:08:49.754Z,102244.47
2023-04-04T16:11:22.030Z,102247.28
2023-04-04T16:13:51.988Z,102249.50
2023-04-04T16:16:21.961Z,102246.16
2023-04-04T16:18:51.952Z,102241.50
2023-04-04T16:21:21.915Z,102236.56
2023-04-04T16:23:55.783Z,102236.72
2023-04-04T16:26:25.810Z,102247.66
2023-04-04T16:28:55.984Z,102244.94
2023-04-04T16:31:25.946Z,102238.16
2023-04-04T16:33:55.853Z,102236.72
2023-04-04T16:36:26.081Z,102233.09
2023-04-04T16:38:59.604Z,102234.28
2023-04-04T16:41:29.883Z,102227.81
2023-04-04T16:43:59.887Z,102236.91
2023-04-04T16:46:30.427Z,102230.03
2023-04-04T16:49:00.572Z,102225.69
2023-04-04T16:51:32.231Z,102228.81
2023-04-04T16:54:04.698Z,102229.13
2023-04-04T16:56:34.598Z,102231.00
2023-04-04T16:59:04.500Z,102229.97
2023-04-04T17:01:34.673Z,102229.47
2023-04-04T17:04:04.941Z,102225.47
2023-04-04T17:06:34.861Z,102219.53
2023-04-04T17:09:08.246Z,102229.88
2023-04-04T17:11:39.709Z,102221.78
2023-04-04T17:14:09.896Z,102223.41
2023-04-04T17:16:40.007Z,102220.69
2023-04-04T17:19:09.832Z,102225.69
2023-04-04T17:21:39.675Z,102224.34
2023-04-04T17:24:12.243Z,102225.75
2023-04-04T17:26:42.249Z,102227.75
2023-04-04T17:29:12.108Z,102227.00
2023-04-04T17:31:43.623Z,102221.03
2023-04-04T17:34:15.246Z,102221.03
2023-04-04T17:36:45.253Z,102204.69
2023-04-04T17:39:17.964Z,102208.59
2023-04-04T17:41:48.640Z,102204.59
2023-04-04T17:44:18.940Z,102212.63
2023-04-04T17:46:49.064Z,102220.03
2023-04-04T17:49:20.498Z,102218.75
2023-04-04T17:51:51.010Z,102217.50
2023-04-04T17:54:23.972Z,102214.00
2023-04-04T17:56:54.058Z,102212.41
2023-04-04T17:59:24.542Z,102216.22
2023-04-04T18:01:54.465Z,102214.91
2023-04-04T18:04:28.390Z,102213.34
2023-04-04T18:06:58.248Z,102219.44
2023-04-04T18:09:31.420Z,102222.59
2023-04-04T18:12:02.714Z,102215.34
2023-04-04T18:14:32.770Z,102212.38
2023-04-04T18:17:02.738Z,102212.94
2023-04-04T18:19:32.718Z,102210.47
2023-04-04T18:22:02.886Z,102209.41
2023-04-04T18:24:35.330Z,102214.63
2023-04-04T18:27:05.343Z,102208.13
2023-04-04T18:29:35.319Z,102201.63
2023-04-04T18:32:05.319Z,102200.81
2023-04-04T18:34:36.411Z,102209.53
2023-04-04T18:37:06.888Z,102208.75
2023-04-04T18:39:39.629Z,102213.72
2023-04-04T18:42:10.784Z,102221.09
2023-04-04T18:44:40.820Z,102214.34
2023-04-04T18:47:11.982Z,102220.09
2023-04-04T18:49:42.199Z,102218.81
2023-04-04T18:52:12.185Z,102221.03
2023-04-04T18:54:45.280Z,102217.28
2023-04-04T18:57:16.586Z,102224.94
2023-04-04T18:59:46.616Z,102215.19
2023-04-04T19:02:16.812Z,102218.50
2023-04-04T19:04:46.856Z,102219.06
2023-04-04T19:07:22.242Z,102220.16
2023-04-04T19:09:54.939Z,102225.09
2023-04-04T19:12:24.875Z,102231.09
2023-04-04T19:14:54.886Z,102225.69
2023-04-04T19:17:24.741Z,102238.97
2023-04-04T19:19:55.151Z,102239.81
2023-04-04T19:22:24.999Z,102236.59
2023-04-04T19:24:57.540Z,102235.50
2023-04-04T19:27:27.430Z,102241.78
2023-04-04T19:29:57.603Z,102238.78
2023-04-04T19:32:30.647Z,102247.19
2023-04-04T19:35:01.113Z,102247.75
2023-04-04T19:37:30.910Z,102246.41
2023-04-04T19:40:03.708Z,102245.84
2023-04-04T19:42:33.618Z,102238.03
2023-04-04T19:45:04.124Z,102242.09
2023-04-04T19:47:34.093Z,102243.69
2023-04-04T19:50:04.065Z,102246.16
2023-04-04T19:52:34.022Z,102237.72
2023-04-04T19:55:12.200Z,102239.09
2023-04-04T19:57:42.221Z,102238.28
2023-04-04T20:00:19.475Z,102238.81
2023-04-04T20:03:01.940Z,102230.16
2023-04-04T20:06:04.806Z,102236.13
2023-04-04T20:08:39.954Z,102238.56
2023-04-04T20:11:13.376Z,102237.75
2023-04-04T20:13:44.238Z,102233.66
2023-04-04T20:16:15.962Z,102235.00
2023-04-04T20:18:47.670Z,102234.47
2023-04-04T20:21:19.104Z,102240.41
2023-04-04T20:23:54.880Z,102234.75
2023-04-04T20:26:55.643Z,102239.31
2023-04-04T20:29:28.845Z,102235.53
2023-04-04T20:32:00.824Z,102241.50
2023-04-04T20:34:42.945Z,102237.69
2023-04-04T20:37:16.351Z,102236.31
2023-04-04T20:39:51.065Z,102240.94
2023-04-04T20:42:40.583Z,102238.19
2023-04-04T20:45:41.332Z,102244.69
2023-04-04T20:48:11.780Z,102244.94
2023-04-04T20:50:48.611Z,102240.88
2023-04-04T20:53:27.627Z,102246.28
2023-04-04T20:55:58.008Z,102240.31
2023-04-04T20:58:34.334Z,102244.63
2023-04-04T21:01:04.453Z,102230.56
2023-04-04T21:03:37.271Z,102221.06
2023-04-04T21:06:16.664Z,102229.47
2023-04-04T21:08:48.846Z,102230.03
2023-04-04T21:11:27.489Z,102231.09
2023-04-04T21:14:00.499Z,102233.25
2023-04-04T21:16:30.986Z,102237.31
2023-04-04T21:19:02.696Z,102235.41
2023-04-04T21:21:32.778Z,102231.63
2023-04-04T21:24:03.900Z,102229.97
2023-04-04T21:26:36.696Z,102221.56
2023-04-04T21:29:11.650Z,102221.28
2023-04-04T21:31:43.533Z,102221.81
2023-04-04T21:34:16.280Z,102219.06
2023-04-04T21:36:47.265Z,102218.81
2023-04-04T21:39:18.475Z,102216.06
2023-04-04T21:41:48.890Z,102208.75
2023-04-04T21:44:21.794Z,102213.06
2023-04-04T21:46:51.686Z,102207.59
2023-04-04T21:49:21.506Z,102208.66
2023-04-04T21:51:51.311Z,102205.41
2023-04-04T21:54:21.326Z,102212.97
2023-04-04T21:56:51.233Z,102216.75
2023-04-04T21:59:23.756Z,102215.38
2023-04-04T22:01:53.662Z,102212.66
2023-04-04T22:04:23.612Z,102208.56
2023-04-04T22:06:53.914Z,102193.38
2023-04-04T22:09:25.932Z,102199.81
2023-04-04T22:11:59.190Z,102201.69
2023-04-04T22:14:33.401Z,102196.50
2023-04-04T22:17:03.297Z,102191.63
2023-04-04T22:19:43.001Z,102192.66
2023-04-04T22:22:13.818Z,102197.47
2023-04-04T22:24:44.962Z,102202.28
2023-04-04T22:27:15.210Z,102197.13
2023-04-04T22:29:47.866Z,102204.34
2023-04-04T22:32:17.769Z,102199.97
2023-04-04T22:34:47.669Z,102205.06
2023-04-04T22:37:19.985Z,102202.34
2023-04-04T22:39:50.104Z,102198.25
2023-04-04T22:42:20.116Z,102198.22
2023-04-04T22:44:52.975Z,102189.00
2023-04-04T22:47:23.158Z,102194.34
2023-04-04T22:49:53.120Z,102192.09
2023-04-04T22:52:23.025Z,102193.69
2023-04-04T22:54:52.879Z,102190.69
2023-04-04T22:57:25.136Z,102182.84
2023-04-04T22:59:57.817Z,102183.66
2023-04-04T23:02:27.860Z,102185.53
2023-04-04T23:04:58.702Z,102187.69
2023-04-04T23:07:29.440Z,102179.53
2023-04-04T23:09:59.425Z,102192.97
2023-04-04T23:12:32.342Z,102192.09
2023-04-04T23:15:05.584Z,102185.84
2023-04-04T23:17:36.396Z,102187.66
2023-04-04T23:20:09.548Z,102188.41
2023-04-04T23:22:40.201Z,102186.72
2023-04-04T23:25:10.626Z,102182.91
2023-04-04T23:27:40.670Z,102183.66
2023-04-04T23:30:14.621Z,102180.06
2023-04-04T23:32:44.483Z,102179.22
2023-04-04T23:35:14.527Z,102176.19
2023-04-04T23:37:44.400Z,102173.69
2023-04-04T23:40:15.163Z,102166.91
2023-04-04T23:42:45.135Z,102165.78
2023-04-04T23:45:19.466Z,102166.78
2023-04-04T23:47:49.371Z,102174.81
2023-04-04T23:50:20.560Z,102163.13
2023-04-04T23:52:50.552Z,102159.03
2023-04-04T23:55:20.552Z,102152.53
2023-04-04T23:57:50.554Z,102161.09
